Aeroporto :
LOGIN :

Iscrizione | Disclaimer

   EN    FR    IT 

 










Sommario :    VFR   VFR Marginale   IFR   IFR Intensivo   IFR Molto Intensivo
Visibilità : 
Base nubi : 
>= 8 km
>= 3000ft
5 / 8 km
1000 / 3000 ft
1500m / 5 km
500 / 1000 ft
800 / 1500m
200 / 500 ft
< 800m
< 200 ft
Simboli :   Temporali  Nebbia  Neve Forte  Precipitazioni Forti  Vento > 20 kt
SIGMETs :   Varie  Temporali  Ghiacco  Turbolenza  Onda orograficha  Ceneri Vulcaniche






- Altitudine del aeroporto : 39 ft
- Codice IATA : SUF


LICA - Lamezia Terme

ULTIMO METAR :
  • 300750Z AUTO VRB02KT 9999 FEW050/// BKN110/// 14/11 Q1016

METARs OBSOLETI :
  • 300720Z AUTO 02004KT 350V070 9999 -RA FEW036/// BKN088/// 14/11 Q1015
  • 300650Z AUTO 09005KT 060V120 9999 -RA FEW034/// BKN081/// 13/11 Q1015
  • 300620Z AUTO 09007KT 060V120 9999 BKN091/// 12/11 Q1014
  • 300550Z AUTO 13003KT 090V200 9999 BKN096/// 11/10 Q1014
  • 300520Z AUTO 07005KT 340V110 9999 BKN091/// BKN110/// 11/10 Q1014

TAF TAF LICA
Valido dal 30 a 06 ore il 01 a 06 ore UTC


300500Z 3006/0106 06005KT 9999 SCT030



MetMap, La meteo Aeronautica in un colpo d'occhio ! - Copyright ORBIFLY Dicembre 2007 - Disclaimer

ORBIFLY MET'MAP TEAM :

Programmazione e sviluppo : Alexandra Zaïnal
Concezione : Baudouin d'Aumeries
Aiuto per la programmazione : Marc-Olivier Méhu
Supporto tecnico e logistico : Manuel Goepfert
Aiuto per la traduzione : Arnaldo La Scala

Contatto : metmap@orbifly.com




FONTI E CREDITI :

   NOAA